sensor_id;sensor_type;location;lat;lon;timestamp;P1;durP1;ratioP1;P2;durP2;ratioP2
59824;SDS011;45703;50.898;6.054;2023-10-19T00:01:06;4.07;;;1.20;;
59824;SDS011;45703;50.898;6.054;2023-10-19T00:03:37;4.15;;;1.17;;
59824;SDS011;45703;50.898;6.054;2023-10-19T00:06:03;4.05;;;1.08;;
59824;SDS011;45703;50.898;6.054;2023-10-19T00:08:30;2.75;;;0.93;;
59824;SDS011;45703;50.898;6.054;2023-10-19T00:11:06;3.92;;;1.10;;
59824;SDS011;45703;50.898;6.054;2023-10-19T00:13:32;4.03;;;1.20;;
59824;SDS011;45703;50.898;6.054;2023-10-19T00:16:00;4.18;;;1.30;;
59824;SDS011;45703;50.898;6.054;2023-10-19T00:18:26;4.57;;;1.20;;
59824;SDS011;45703;50.898;6.054;2023-10-19T00:20:52;4.22;;;1.30;;
59824;SDS011;45703;50.898;6.054;2023-10-19T00:23:24;4.57;;;1.10;;
59824;SDS011;45703;50.898;6.054;2023-10-19T00:26:00;3.95;;;1.05;;
59824;SDS011;45703;50.898;6.054;2023-10-19T00:28:33;4.07;;;1.10;;
59824;SDS011;45703;50.898;6.054;2023-10-19T00:31:01;3.17;;;1.00;;
59824;SDS011;45703;50.898;6.054;2023-10-19T00:33:36;4.60;;;1.60;;
59824;SDS011;45703;50.898;6.054;2023-10-19T00:36:09;3.83;;;1.10;;
59824;SDS011;45703;50.898;6.054;2023-10-19T00:38:38;3.97;;;1.20;;
59824;SDS011;45703;50.898;6.054;2023-10-19T00:41:12;3.85;;;1.10;;
59824;SDS011;45703;50.898;6.054;2023-10-19T00:43:38;4.10;;;1.23;;
59824;SDS011;45703;50.898;6.054;2023-10-19T00:51:20;3.38;;;0.90;;
59824;SDS011;45703;50.898;6.054;2023-10-19T00:53:56;4.88;;;0.95;;
59824;SDS011;45703;50.898;6.054;2023-10-19T00:56:26;6.60;;;1.25;;
59824;SDS011;45703;50.898;6.054;2023-10-19T00:58:57;5.05;;;1.10;;
59824;SDS011;45703;50.898;6.054;2023-10-19T01:01:37;5.07;;;1.20;;
59824;SDS011;45703;50.898;6.054;2023-10-19T01:04:08;4.28;;;0.88;;
59824;SDS011;45703;50.898;6.054;2023-10-19T01:06:39;3.15;;;0.70;;
59824;SDS011;45703;50.898;6.054;2023-10-19T01:09:07;4.45;;;0.93;;
59824;SDS011;45703;50.898;6.054;2023-10-19T01:11:33;4.20;;;1.10;;
59824;SDS011;45703;50.898;6.054;2023-10-19T01:14:00;5.47;;;0.80;;
59824;SDS011;45703;50.898;6.054;2023-10-19T01:16:42;4.68;;;0.93;;
59824;SDS011;45703;50.898;6.054;2023-10-19T01:19:11;3.53;;;0.70;;
59824;SDS011;45703;50.898;6.054;2023-10-19T01:21:36;3.25;;;0.70;;
59824;SDS011;45703;50.898;6.054;2023-10-19T01:24:08;4.20;;;0.70;;
59824;SDS011;45703;50.898;6.054;2023-10-19T01:26:37;2.72;;;0.80;;
59824;SDS011;45703;50.898;6.054;2023-10-19T01:29:03;3.47;;;0.80;;
59824;SDS011;45703;50.898;6.054;2023-10-19T01:31:38;4.00;;;0.73;;
59824;SDS011;45703;50.898;6.054;2023-10-19T01:34:15;2.92;;;0.70;;
59824;SDS011;45703;50.898;6.054;2023-10-19T01:36:45;3.15;;;0.80;;
59824;SDS011;45703;50.898;6.054;2023-10-19T01:39:10;4.05;;;0.80;;
59824;SDS011;45703;50.898;6.054;2023-10-19T01:41:37;4.70;;;0.90;;
59824;SDS011;45703;50.898;6.054;2023-10-19T01:44:04;3.03;;;0.60;;
59824;SDS011;45703;50.898;6.054;2023-10-19T01:46:31;4.50;;;0.90;;
59824;SDS011;45703;50.898;6.054;2023-10-19T01:49:02;2.17;;;0.60;;
59824;SDS011;45703;50.898;6.054;2023-10-19T01:51:33;5.45;;;0.98;;
59824;SDS011;45703;50.898;6.054;2023-10-19T01:54:08;4.05;;;0.90;;
59824;SDS011;45703;50.898;6.054;2023-10-19T01:56:34;3.72;;;0.77;;
59824;SDS011;45703;50.898;6.054;2023-10-19T01:59:03;5.28;;;1.05;;
59824;SDS011;45703;50.898;6.054;2023-10-19T02:01:30;3.63;;;0.90;;
59824;SDS011;45703;50.898;6.054;2023-10-19T02:04:01;4.20;;;1.05;;
59824;SDS011;45703;50.898;6.054;2023-10-19T02:06:29;4.30;;;0.90;;
59824;SDS011;45703;50.898;6.054;2023-10-19T02:09:00;4.63;;;0.85;;
59824;SDS011;45703;50.898;6.054;2023-10-19T02:11:46;5.70;;;0.90;;
59824;SDS011;45703;50.898;6.054;2023-10-19T02:14:13;4.30;;;0.73;;
59824;SDS011;45703;50.898;6.054;2023-10-19T02:16:51;2.97;;;0.60;;
59824;SDS011;45703;50.898;6.054;2023-10-19T02:19:21;4.03;;;0.60;;
59824;SDS011;45703;50.898;6.054;2023-10-19T02:21:48;3.00;;;0.63;;
59824;SDS011;45703;50.898;6.054;2023-10-19T02:24:14;3.55;;;0.60;;
59824;SDS011;45703;50.898;6.054;2023-10-19T02:26:40;2.95;;;0.52;;
59824;SDS011;45703;50.898;6.054;2023-10-19T02:29:06;2.78;;;0.60;;
59824;SDS011;45703;50.898;6.054;2023-10-19T02:31:38;3.55;;;0.70;;
59824;SDS011;45703;50.898;6.054;2023-10-19T02:34:06;3.33;;;0.65;;
59824;SDS011;45703;50.898;6.054;2023-10-19T02:36:33;2.20;;;0.50;;
59824;SDS011;45703;50.898;6.054;2023-10-19T02:39:02;5.80;;;0.88;;
59824;SDS011;45703;50.898;6.054;2023-10-19T02:41:32;2.80;;;0.60;;
59824;SDS011;45703;50.898;6.054;2023-10-19T02:44:09;4.45;;;0.80;;
59824;SDS011;45703;50.898;6.054;2023-10-19T02:46:42;3.97;;;0.90;;
59824;SDS011;45703;50.898;6.054;2023-10-19T02:49:11;3.35;;;0.73;;
59824;SDS011;45703;50.898;6.054;2023-10-19T02:51:42;3.55;;;0.73;;
59824;SDS011;45703;50.898;6.054;2023-10-19T02:54:14;3.45;;;0.68;;
59824;SDS011;45703;50.898;6.054;2023-10-19T02:56:48;5.38;;;0.77;;
59824;SDS011;45703;50.898;6.054;2023-10-19T02:59:18;3.55;;;0.75;;
59824;SDS011;45703;50.898;6.054;2023-10-19T03:04:32;3.13;;;0.75;;
59824;SDS011;45703;50.898;6.054;2023-10-19T03:07:02;3.05;;;0.80;;
59824;SDS011;45703;50.898;6.054;2023-10-19T03:09:29;2.95;;;0.77;;
59824;SDS011;45703;50.898;6.054;2023-10-19T03:11:56;6.22;;;0.98;;
59824;SDS011;45703;50.898;6.054;2023-10-19T03:14:25;3.65;;;0.88;;
59824;SDS011;45703;50.898;6.054;2023-10-19T03:16:51;4.30;;;1.02;;
59824;SDS011;45703;50.898;6.054;2023-10-19T03:19:17;4.45;;;0.90;;
59824;SDS011;45703;50.898;6.054;2023-10-19T03:21:45;4.38;;;1.00;;
59824;SDS011;45703;50.898;6.054;2023-10-19T03:24:17;6.60;;;1.17;;
59824;SDS011;45703;50.898;6.054;2023-10-19T03:27:05;4.70;;;1.10;;
59824;SDS011;45703;50.898;6.054;2023-10-19T03:29:51;4.95;;;1.10;;
59824;SDS011;45703;50.898;6.054;2023-10-19T03:32:21;6.28;;;1.02;;
59824;SDS011;45703;50.898;6.054;2023-10-19T03:34:51;5.60;;;0.90;;
59824;SDS011;45703;50.898;6.054;2023-10-19T03:37:20;3.33;;;0.95;;
59824;SDS011;45703;50.898;6.054;2023-10-19T03:39:47;3.08;;;0.80;;
59824;SDS011;45703;50.898;6.054;2023-10-19T03:42:13;4.80;;;0.88;;
59824;SDS011;45703;50.898;6.054;2023-10-19T03:44:39;3.22;;;0.70;;
59824;SDS011;45703;50.898;6.054;2023-10-19T03:47:10;4.32;;;0.80;;
59824;SDS011;45703;50.898;6.054;2023-10-19T03:49:37;5.05;;;1.25;;
59824;SDS011;45703;50.898;6.054;2023-10-19T03:52:06;3.72;;;0.90;;
59824;SDS011;45703;50.898;6.054;2023-10-19T03:54:36;3.13;;;0.82;;
59824;SDS011;45703;50.898;6.054;2023-10-19T03:57:12;3.33;;;0.80;;
59824;SDS011;45703;50.898;6.054;2023-10-19T03:59:44;3.53;;;0.90;;
59824;SDS011;45703;50.898;6.054;2023-10-19T04:02:11;3.88;;;0.88;;
59824;SDS011;45703;50.898;6.054;2023-10-19T04:04:41;4.50;;;0.90;;
59824;SDS011;45703;50.898;6.054;2023-10-19T04:07:13;4.97;;;1.05;;
59824;SDS011;45703;50.898;6.054;2023-10-19T04:09:51;3.72;;;0.80;;
59824;SDS011;45703;50.898;6.054;2023-10-19T04:12:29;2.90;;;0.80;;
59824;SDS011;45703;50.898;6.054;2023-10-19T04:17:34;3.33;;;0.70;;
59824;SDS011;45703;50.898;6.054;2023-10-19T04:20:01;5.35;;;1.10;;
59824;SDS011;45703;50.898;6.054;2023-10-19T04:22:35;5.90;;;1.13;;
59824;SDS011;45703;50.898;6.054;2023-10-19T04:25:00;3.22;;;0.88;;
59824;SDS011;45703;50.898;6.054;2023-10-19T04:27:26;3.80;;;0.80;;
59824;SDS011;45703;50.898;6.054;2023-10-19T04:29:51;4.57;;;0.93;;
59824;SDS011;45703;50.898;6.054;2023-10-19T04:32:17;3.85;;;1.02;;
59824;SDS011;45703;50.898;6.054;2023-10-19T04:34:50;5.13;;;1.33;;
59824;SDS011;45703;50.898;6.054;2023-10-19T04:37:17;5.10;;;1.48;;
59824;SDS011;45703;50.898;6.054;2023-10-19T04:39:48;5.10;;;1.33;;
59824;SDS011;45703;50.898;6.054;2023-10-19T04:42:14;4.65;;;1.23;;
59824;SDS011;45703;50.898;6.054;2023-10-19T04:44:40;5.20;;;1.15;;
59824;SDS011;45703;50.898;6.054;2023-10-19T04:47:06;4.00;;;1.10;;
59824;SDS011;45703;50.898;6.054;2023-10-19T04:49:31;3.95;;;0.90;;
59824;SDS011;45703;50.898;6.054;2023-10-19T04:51:56;4.68;;;0.93;;
59824;SDS011;45703;50.898;6.054;2023-10-19T04:54:24;4.70;;;1.33;;
59824;SDS011;45703;50.898;6.054;2023-10-19T04:56:50;4.00;;;0.80;;
59824;SDS011;45703;50.898;6.054;2023-10-19T04:59:17;4.97;;;0.80;;
59824;SDS011;45703;50.898;6.054;2023-10-19T05:01:43;3.55;;;0.85;;
59824;SDS011;45703;50.898;6.054;2023-10-19T05:04:08;3.47;;;0.70;;
59824;SDS011;45703;50.898;6.054;2023-10-19T05:06:34;4.03;;;0.77;;
59824;SDS011;45703;50.898;6.054;2023-10-19T05:08:59;2.80;;;0.82;;
59824;SDS011;45703;50.898;6.054;2023-10-19T05:11:24;5.50;;;0.82;;
59824;SDS011;45703;50.898;6.054;2023-10-19T05:13:50;4.53;;;1.00;;
59824;SDS011;45703;50.898;6.054;2023-10-19T05:16:15;3.63;;;1.00;;
59824;SDS011;45703;50.898;6.054;2023-10-19T05:18:43;5.72;;;1.30;;
59824;SDS011;45703;50.898;6.054;2023-10-19T05:21:08;6.93;;;1.25;;
59824;SDS011;45703;50.898;6.054;2023-10-19T05:23:35;5.18;;;1.05;;
59824;SDS011;45703;50.898;6.054;2023-10-19T05:26:01;4.43;;;1.10;;
59824;SDS011;45703;50.898;6.054;2023-10-19T05:28:28;6.20;;;1.45;;
59824;SDS011;45703;50.898;6.054;2023-10-19T05:30:53;6.30;;;1.30;;
59824;SDS011;45703;50.898;6.054;2023-10-19T05:33:19;3.72;;;1.13;;
59824;SDS011;45703;50.898;6.054;2023-10-19T05:35:46;4.57;;;1.30;;
59824;SDS011;45703;50.898;6.054;2023-10-19T05:38:12;6.07;;;1.90;;
59824;SDS011;45703;50.898;6.054;2023-10-19T05:40:37;4.63;;;1.50;;
59824;SDS011;45703;50.898;6.054;2023-10-19T05:43:04;4.68;;;1.35;;
59824;SDS011;45703;50.898;6.054;2023-10-19T05:45:29;4.97;;;1.45;;
59824;SDS011;45703;50.898;6.054;2023-10-19T05:47:57;6.68;;;1.70;;
59824;SDS011;45703;50.898;6.054;2023-10-19T05:50:25;6.78;;;2.10;;
59824;SDS011;45703;50.898;6.054;2023-10-19T05:52:53;7.05;;;2.45;;
59824;SDS011;45703;50.898;6.054;2023-10-19T05:55:19;8.60;;;2.72;;
59824;SDS011;45703;50.898;6.054;2023-10-19T05:57:46;5.68;;;2.38;;
59824;SDS011;45703;50.898;6.054;2023-10-19T06:00:12;10.43;;;6.22;;
59824;SDS011;45703;50.898;6.054;2023-10-19T06:02:39;9.10;;;6.00;;
59824;SDS011;45703;50.898;6.054;2023-10-19T06:05:15;9.55;;;5.25;;
59824;SDS011;45703;50.898;6.054;2023-10-19T06:07:41;8.25;;;4.70;;
59824;SDS011;45703;50.898;6.054;2023-10-19T06:10:14;7.72;;;4.15;;
59824;SDS011;45703;50.898;6.054;2023-10-19T06:12:45;7.32;;;2.88;;
59824;SDS011;45703;50.898;6.054;2023-10-19T06:15:12;7.68;;;2.75;;
59824;SDS011;45703;50.898;6.054;2023-10-19T06:17:39;7.07;;;2.17;;
59824;SDS011;45703;50.898;6.054;2023-10-19T06:20:06;6.43;;;1.92;;
59824;SDS011;45703;50.898;6.054;2023-10-19T06:22:34;6.63;;;2.45;;
59824;SDS011;45703;50.898;6.054;2023-10-19T06:25:00;8.85;;;1.90;;
59824;SDS011;45703;50.898;6.054;2023-10-19T06:27:29;6.97;;;2.05;;
59824;SDS011;45703;50.898;6.054;2023-10-19T06:29:56;7.13;;;2.38;;
59824;SDS011;45703;50.898;6.054;2023-10-19T06:32:22;6.47;;;2.00;;
59824;SDS011;45703;50.898;6.054;2023-10-19T06:34:52;5.40;;;2.00;;
59824;SDS011;45703;50.898;6.054;2023-10-19T06:37:17;7.50;;;3.03;;
59824;SDS011;45703;50.898;6.054;2023-10-19T06:39:43;8.02;;;2.28;;
59824;SDS011;45703;50.898;6.054;2023-10-19T06:42:09;8.73;;;3.17;;
59824;SDS011;45703;50.898;6.054;2023-10-19T06:44:39;7.65;;;2.30;;
59824;SDS011;45703;50.898;6.054;2023-10-19T06:47:08;5.80;;;1.80;;
59824;SDS011;45703;50.898;6.054;2023-10-19T06:49:34;6.20;;;1.80;;
59824;SDS011;45703;50.898;6.054;2023-10-19T06:51:59;4.95;;;1.33;;
59824;SDS011;45703;50.898;6.054;2023-10-19T06:54:25;4.93;;;1.60;;
59824;SDS011;45703;50.898;6.054;2023-10-19T06:56:52;5.57;;;1.40;;
59824;SDS011;45703;50.898;6.054;2023-10-19T06:59:31;6.43;;;1.45;;
59824;SDS011;45703;50.898;6.054;2023-10-19T07:02:01;5.15;;;1.33;;
59824;SDS011;45703;50.898;6.054;2023-10-19T07:04:29;6.22;;;1.30;;
59824;SDS011;45703;50.898;6.054;2023-10-19T07:06:55;4.93;;;1.33;;
59824;SDS011;45703;50.898;6.054;2023-10-19T07:09:21;4.35;;;1.10;;
59824;SDS011;45703;50.898;6.054;2023-10-19T07:11:50;5.65;;;1.30;;
59824;SDS011;45703;50.898;6.054;2023-10-19T07:14:22;5.03;;;1.00;;
59824;SDS011;45703;50.898;6.054;2023-10-19T07:16:51;5.80;;;1.10;;
59824;SDS011;45703;50.898;6.054;2023-10-19T07:19:16;5.85;;;1.40;;
59824;SDS011;45703;50.898;6.054;2023-10-19T07:21:43;6.40;;;1.50;;
59824;SDS011;45703;50.898;6.054;2023-10-19T07:24:14;6.35;;;1.30;;
59824;SDS011;45703;50.898;6.054;2023-10-19T07:26:39;6.82;;;1.25;;
59824;SDS011;45703;50.898;6.054;2023-10-19T07:29:23;5.55;;;1.33;;
59824;SDS011;45703;50.898;6.054;2023-10-19T07:31:49;4.40;;;1.17;;
59824;SDS011;45703;50.898;6.054;2023-10-19T07:34:17;5.50;;;1.17;;
59824;SDS011;45703;50.898;6.054;2023-10-19T07:36:43;6.32;;;1.30;;
59824;SDS011;45703;50.898;6.054;2023-10-19T07:39:08;4.25;;;1.00;;
59824;SDS011;45703;50.898;6.054;2023-10-19T07:41:43;4.55;;;1.38;;
59824;SDS011;45703;50.898;6.054;2023-10-19T07:44:09;5.70;;;1.30;;
59824;SDS011;45703;50.898;6.054;2023-10-19T07:46:34;6.15;;;1.20;;
59824;SDS011;45703;50.898;6.054;2023-10-19T07:49:00;5.72;;;1.10;;
59824;SDS011;45703;50.898;6.054;2023-10-19T07:51:28;5.47;;;1.52;;
59824;SDS011;45703;50.898;6.054;2023-10-19T07:53:54;5.47;;;1.38;;
59824;SDS011;45703;50.898;6.054;2023-10-19T07:56:22;7.88;;;1.08;;
59824;SDS011;45703;50.898;6.054;2023-10-19T07:58:48;5.35;;;1.17;;
59824;SDS011;45703;50.898;6.054;2023-10-19T08:01:16;6.68;;;1.40;;
59824;SDS011;45703;50.898;6.054;2023-10-19T08:03:42;6.10;;;1.40;;
59824;SDS011;45703;50.898;6.054;2023-10-19T08:06:07;8.50;;;1.33;;
59824;SDS011;45703;50.898;6.054;2023-10-19T08:08:34;6.15;;;1.30;;
59824;SDS011;45703;50.898;6.054;2023-10-19T08:11:00;6.07;;;1.10;;
59824;SDS011;45703;50.898;6.054;2023-10-19T08:13:30;4.25;;;1.02;;
59824;SDS011;45703;50.898;6.054;2023-10-19T08:15:57;5.75;;;1.10;;
59824;SDS011;45703;50.898;6.054;2023-10-19T08:18:22;5.88;;;1.20;;
59824;SDS011;45703;50.898;6.054;2023-10-19T08:20:48;5.50;;;1.13;;
59824;SDS011;45703;50.898;6.054;2023-10-19T08:23:14;5.93;;;1.30;;
59824;SDS011;45703;50.898;6.054;2023-10-19T08:25:41;7.45;;;1.33;;
59824;SDS011;45703;50.898;6.054;2023-10-19T08:28:09;8.50;;;1.50;;
59824;SDS011;45703;50.898;6.054;2023-10-19T08:30:36;5.88;;;1.08;;
59824;SDS011;45703;50.898;6.054;2023-10-19T08:33:02;6.15;;;1.38;;
59824;SDS011;45703;50.898;6.054;2023-10-19T08:35:28;5.03;;;1.23;;
59824;SDS011;45703;50.898;6.054;2023-10-19T08:37:56;7.68;;;1.40;;
59824;SDS011;45703;50.898;6.054;2023-10-19T08:40:22;6.68;;;1.48;;
59824;SDS011;45703;50.898;6.054;2023-10-19T08:42:49;6.00;;;1.23;;
59824;SDS011;45703;50.898;6.054;2023-10-19T08:45:15;6.63;;;1.42;;
59824;SDS011;45703;50.898;6.054;2023-10-19T08:48:02;7.18;;;1.48;;
59824;SDS011;45703;50.898;6.054;2023-10-19T08:50:28;5.47;;;1.50;;
59824;SDS011;45703;50.898;6.054;2023-10-19T08:52:55;5.82;;;1.20;;
59824;SDS011;45703;50.898;6.054;2023-10-19T08:55:24;5.18;;;1.10;;
59824;SDS011;45703;50.898;6.054;2023-10-19T08:57:50;7.07;;;1.15;;
59824;SDS011;45703;50.898;6.054;2023-10-19T09:00:18;7.68;;;1.50;;
59824;SDS011;45703;50.898;6.054;2023-10-19T09:02:47;7.80;;;1.60;;
59824;SDS011;45703;50.898;6.054;2023-10-19T09:05:13;5.55;;;1.25;;
59824;SDS011;45703;50.898;6.054;2023-10-19T09:07:48;7.38;;;1.23;;
59824;SDS011;45703;50.898;6.054;2023-10-19T09:10:23;4.80;;;1.08;;
59824;SDS011;45703;50.898;6.054;2023-10-19T09:13:05;7.65;;;1.58;;
59824;SDS011;45703;50.898;6.054;2023-10-19T09:15:35;9.93;;;1.67;;
59824;SDS011;45703;50.898;6.054;2023-10-19T09:18:14;5.80;;;1.23;;
59824;SDS011;45703;50.898;6.054;2023-10-19T09:20:45;7.32;;;1.30;;
59824;SDS011;45703;50.898;6.054;2023-10-19T09:23:24;6.28;;;1.50;;
59824;SDS011;45703;50.898;6.054;2023-10-19T09:25:53;6.03;;;1.30;;
59824;SDS011;45703;50.898;6.054;2023-10-19T09:28:18;4.65;;;1.30;;
59824;SDS011;45703;50.898;6.054;2023-10-19T09:30:44;6.32;;;1.30;;
59824;SDS011;45703;50.898;6.054;2023-10-19T09:33:12;6.20;;;1.02;;
59824;SDS011;45703;50.898;6.054;2023-10-19T09:35:40;7.50;;;1.67;;
59824;SDS011;45703;50.898;6.054;2023-10-19T09:38:08;6.60;;;1.50;;
59824;SDS011;45703;50.898;6.054;2023-10-19T09:40:34;5.57;;;1.20;;
59824;SDS011;45703;50.898;6.054;2023-10-19T09:43:02;9.13;;;1.55;;
59824;SDS011;45703;50.898;6.054;2023-10-19T09:45:32;6.68;;;1.48;;
59824;SDS011;45703;50.898;6.054;2023-10-19T09:48:03;6.40;;;1.33;;
59824;SDS011;45703;50.898;6.054;2023-10-19T09:50:31;5.13;;;1.33;;
59824;SDS011;45703;50.898;6.054;2023-10-19T09:52:57;9.02;;;1.65;;
59824;SDS011;45703;50.898;6.054;2023-10-19T09:55:31;6.78;;;1.38;;
59824;SDS011;45703;50.898;6.054;2023-10-19T09:58:04;7.93;;;1.50;;
59824;SDS011;45703;50.898;6.054;2023-10-19T10:00:35;5.38;;;1.02;;
59824;SDS011;45703;50.898;6.054;2023-10-19T10:03:00;5.70;;;1.20;;
59824;SDS011;45703;50.898;6.054;2023-10-19T10:13:59;6.68;;;1.40;;
59824;SDS011;45703;50.898;6.054;2023-10-19T10:16:28;4.75;;;1.10;;
59824;SDS011;45703;50.898;6.054;2023-10-19T10:18:58;7.03;;;1.38;;
59824;SDS011;45703;50.898;6.054;2023-10-19T10:21:24;4.53;;;1.30;;
59824;SDS011;45703;50.898;6.054;2023-10-19T10:24:03;6.75;;;1.67;;
59824;SDS011;45703;50.898;6.054;2023-10-19T10:26:30;6.35;;;1.40;;
59824;SDS011;45703;50.898;6.054;2023-10-19T10:29:09;7.53;;;1.27;;
59824;SDS011;45703;50.898;6.054;2023-10-19T10:31:43;6.93;;;1.20;;
59824;SDS011;45703;50.898;6.054;2023-10-19T10:34:09;5.82;;;1.30;;
59824;SDS011;45703;50.898;6.054;2023-10-19T10:39:27;4.55;;;1.27;;
59824;SDS011;45703;50.898;6.054;2023-10-19T10:42:00;4.82;;;1.30;;
59824;SDS011;45703;50.898;6.054;2023-10-19T10:45:01;7.25;;;1.42;;
59824;SDS011;45703;50.898;6.054;2023-10-19T10:47:23;7.85;;;1.08;;
59824;SDS011;45703;50.898;6.054;2023-10-19T10:49:55;6.75;;;1.50;;
59824;SDS011;45703;50.898;6.054;2023-10-19T10:54:51;4.95;;;1.00;;
59824;SDS011;45703;50.898;6.054;2023-10-19T10:57:16;5.57;;;1.30;;
59824;SDS011;45703;50.898;6.054;2023-10-19T10:59:43;7.28;;;1.23;;
59824;SDS011;45703;50.898;6.054;2023-10-19T11:02:18;6.78;;;1.45;;
59824;SDS011;45703;50.898;6.054;2023-10-19T11:04:46;5.80;;;1.38;;
59824;SDS011;45703;50.898;6.054;2023-10-19T11:07:18;4.45;;;1.10;;
59824;SDS011;45703;50.898;6.054;2023-10-19T11:09:47;7.45;;;1.60;;
59824;SDS011;45703;50.898;6.054;2023-10-19T11:12:16;8.65;;;1.35;;
59824;SDS011;45703;50.898;6.054;2023-10-19T11:14:51;7.00;;;1.38;;
59824;SDS011;45703;50.898;6.054;2023-10-19T11:17:18;8.10;;;1.35;;
59824;SDS011;45703;50.898;6.054;2023-10-19T11:19:44;6.43;;;1.55;;
59824;SDS011;45703;50.898;6.054;2023-10-19T11:22:09;5.32;;;1.42;;
59824;SDS011;45703;50.898;6.054;2023-10-19T11:24:35;6.22;;;1.50;;
59824;SDS011;45703;50.898;6.054;2023-10-19T11:27:05;8.05;;;1.55;;
59824;SDS011;45703;50.898;6.054;2023-10-19T11:29:32;5.25;;;1.42;;
59824;SDS011;45703;50.898;6.054;2023-10-19T11:31:59;6.30;;;1.83;;
59824;SDS011;45703;50.898;6.054;2023-10-19T11:34:25;6.55;;;1.60;;
59824;SDS011;45703;50.898;6.054;2023-10-19T11:36:56;7.10;;;1.70;;
59824;SDS011;45703;50.898;6.054;2023-10-19T11:39:31;5.18;;;1.30;;
59824;SDS011;45703;50.898;6.054;2023-10-19T11:41:57;7.20;;;1.40;;
59824;SDS011;45703;50.898;6.054;2023-10-19T11:44:22;7.45;;;1.75;;
59824;SDS011;45703;50.898;6.054;2023-10-19T11:46:50;7.03;;;1.30;;
59824;SDS011;45703;50.898;6.054;2023-10-19T11:49:16;5.88;;;1.50;;
59824;SDS011;45703;50.898;6.054;2023-10-19T11:51:41;6.15;;;1.60;;
59824;SDS011;45703;50.898;6.054;2023-10-19T11:54:11;6.82;;;1.70;;
59824;SDS011;45703;50.898;6.054;2023-10-19T11:56:37;7.57;;;1.73;;
59824;SDS011;45703;50.898;6.054;2023-10-19T11:59:02;7.38;;;1.70;;
59824;SDS011;45703;50.898;6.054;2023-10-19T12:01:28;9.20;;;1.50;;
59824;SDS011;45703;50.898;6.054;2023-10-19T12:03:54;5.22;;;1.10;;
59824;SDS011;45703;50.898;6.054;2023-10-19T12:06:20;7.07;;;1.77;;
59824;SDS011;45703;50.898;6.054;2023-10-19T12:08:48;6.00;;;1.58;;
59824;SDS011;45703;50.898;6.054;2023-10-19T12:11:14;6.93;;;1.52;;
59824;SDS011;45703;50.898;6.054;2023-10-19T12:13:47;6.90;;;1.50;;
59824;SDS011;45703;50.898;6.054;2023-10-19T12:16:12;7.28;;;1.50;;
59824;SDS011;45703;50.898;6.054;2023-10-19T12:18:40;5.78;;;1.63;;
59824;SDS011;45703;50.898;6.054;2023-10-19T12:21:07;7.97;;;1.98;;
59824;SDS011;45703;50.898;6.054;2023-10-19T12:23:36;6.32;;;1.55;;
59824;SDS011;45703;50.898;6.054;2023-10-19T12:26:04;5.38;;;1.27;;
59824;SDS011;45703;50.898;6.054;2023-10-19T12:28:43;6.53;;;1.35;;
59824;SDS011;45703;50.898;6.054;2023-10-19T12:31:21;9.38;;;1.88;;
59824;SDS011;45703;50.898;6.054;2023-10-19T12:33:53;5.68;;;1.40;;
59824;SDS011;45703;50.898;6.054;2023-10-19T12:36:26;6.32;;;1.60;;
59824;SDS011;45703;50.898;6.054;2023-10-19T12:39:10;5.95;;;1.25;;
59824;SDS011;45703;50.898;6.054;2023-10-19T12:42:29;6.95;;;1.38;;
59824;SDS011;45703;50.898;6.054;2023-10-19T12:45:14;6.70;;;1.45;;
59824;SDS011;45703;50.898;6.054;2023-10-19T12:48:00;6.15;;;1.30;;
59824;SDS011;45703;50.898;6.054;2023-10-19T12:50:53;5.43;;;1.38;;
59824;SDS011;45703;50.898;6.054;2023-10-19T12:53:46;8.57;;;1.73;;
59824;SDS011;45703;50.898;6.054;2023-10-19T12:56:13;6.65;;;1.30;;
59824;SDS011;45703;50.898;6.054;2023-10-19T12:58:54;4.93;;;1.38;;
59824;SDS011;45703;50.898;6.054;2023-10-19T13:01:19;5.85;;;1.58;;
59824;SDS011;45703;50.898;6.054;2023-10-19T13:03:46;6.18;;;1.38;;
59824;SDS011;45703;50.898;6.054;2023-10-19T13:06:14;4.88;;;1.23;;
59824;SDS011;45703;50.898;6.054;2023-10-19T13:08:40;7.88;;;1.77;;
59824;SDS011;45703;50.898;6.054;2023-10-19T13:11:06;5.00;;;1.38;;
59824;SDS011;45703;50.898;6.054;2023-10-19T13:13:32;8.35;;;1.80;;
59824;SDS011;45703;50.898;6.054;2023-10-19T13:16:01;7.43;;;1.48;;
59824;SDS011;45703;50.898;6.054;2023-10-19T13:18:30;6.95;;;1.55;;
59824;SDS011;45703;50.898;6.054;2023-10-19T13:20:59;6.40;;;1.55;;
59824;SDS011;45703;50.898;6.054;2023-10-19T13:23:29;6.10;;;1.48;;
59824;SDS011;45703;50.898;6.054;2023-10-19T13:25:58;5.97;;;1.50;;
59824;SDS011;45703;50.898;6.054;2023-10-19T13:28:34;6.07;;;1.50;;
59824;SDS011;45703;50.898;6.054;2023-10-19T13:31:02;5.80;;;1.52;;
59824;SDS011;45703;50.898;6.054;2023-10-19T13:33:28;5.07;;;1.30;;
59824;SDS011;45703;50.898;6.054;2023-10-19T13:35:54;6.82;;;1.80;;
59824;SDS011;45703;50.898;6.054;2023-10-19T13:38:19;4.25;;;1.23;;
59824;SDS011;45703;50.898;6.054;2023-10-19T13:40:45;5.55;;;1.65;;
59824;SDS011;45703;50.898;6.054;2023-10-19T13:43:13;7.18;;;1.80;;
59824;SDS011;45703;50.898;6.054;2023-10-19T13:45:39;6.63;;;1.58;;
59824;SDS011;45703;50.898;6.054;2023-10-19T13:48:06;6.03;;;1.52;;
59824;SDS011;45703;50.898;6.054;2023-10-19T13:50:32;5.88;;;1.70;;
59824;SDS011;45703;50.898;6.054;2023-10-19T13:52:59;6.78;;;1.90;;
59824;SDS011;45703;50.898;6.054;2023-10-19T13:55:30;5.28;;;1.52;;
59824;SDS011;45703;50.898;6.054;2023-10-19T13:57:55;5.55;;;1.40;;
59824;SDS011;45703;50.898;6.054;2023-10-19T14:00:22;6.68;;;1.63;;
59824;SDS011;45703;50.898;6.054;2023-10-19T14:02:52;5.07;;;1.40;;
59824;SDS011;45703;50.898;6.054;2023-10-19T14:05:19;6.03;;;1.75;;
59824;SDS011;45703;50.898;6.054;2023-10-19T14:07:45;6.47;;;1.63;;
59824;SDS011;45703;50.898;6.054;2023-10-19T14:10:12;5.05;;;1.60;;
59824;SDS011;45703;50.898;6.054;2023-10-19T14:12:39;6.10;;;2.00;;
59824;SDS011;45703;50.898;6.054;2023-10-19T14:15:17;4.72;;;1.33;;
59824;SDS011;45703;50.898;6.054;2023-10-19T14:17:44;7.85;;;1.88;;
59824;SDS011;45703;50.898;6.054;2023-10-19T14:20:12;5.63;;;1.67;;
59824;SDS011;45703;50.898;6.054;2023-10-19T14:22:42;5.60;;;1.75;;
59824;SDS011;45703;50.898;6.054;2023-10-19T14:25:09;5.88;;;1.60;;
59824;SDS011;45703;50.898;6.054;2023-10-19T14:27:46;5.22;;;1.90;;
59824;SDS011;45703;50.898;6.054;2023-10-19T14:30:13;5.28;;;1.73;;
59824;SDS011;45703;50.898;6.054;2023-10-19T14:32:40;7.22;;;1.92;;
59824;SDS011;45703;50.898;6.054;2023-10-19T14:35:10;6.53;;;1.67;;
59824;SDS011;45703;50.898;6.054;2023-10-19T14:37:40;5.37;;;1.53;;
59824;SDS011;45703;50.898;6.054;2023-10-19T14:40:17;4.78;;;1.60;;
59824;SDS011;45703;50.898;6.054;2023-10-19T14:42:45;5.45;;;1.73;;
59824;SDS011;45703;50.898;6.054;2023-10-19T14:45:14;5.80;;;1.50;;
59824;SDS011;45703;50.898;6.054;2023-10-19T14:47:41;7.15;;;1.65;;
59824;SDS011;45703;50.898;6.054;2023-10-19T14:50:11;5.43;;;1.60;;
59824;SDS011;45703;50.898;6.054;2023-10-19T14:52:40;6.13;;;1.50;;
59824;SDS011;45703;50.898;6.054;2023-10-19T14:55:06;5.65;;;1.55;;
59824;SDS011;45703;50.898;6.054;2023-10-19T14:57:35;4.45;;;1.58;;
59824;SDS011;45703;50.898;6.054;2023-10-19T15:00:02;5.72;;;1.45;;
59824;SDS011;45703;50.898;6.054;2023-10-19T15:02:47;5.70;;;1.70;;
59824;SDS011;45703;50.898;6.054;2023-10-19T15:05:20;6.60;;;1.60;;
59824;SDS011;45703;50.898;6.054;2023-10-19T15:07:46;6.63;;;1.80;;
59824;SDS011;45703;50.898;6.054;2023-10-19T15:12:41;7.60;;;2.20;;
59824;SDS011;45703;50.898;6.054;2023-10-19T15:15:07;6.25;;;2.00;;
59824;SDS011;45703;50.898;6.054;2023-10-19T15:17:54;8.23;;;2.40;;
59824;SDS011;45703;50.898;6.054;2023-10-19T15:20:21;5.72;;;1.92;;
59824;SDS011;45703;50.898;6.054;2023-10-19T15:22:50;6.00;;;1.80;;
59824;SDS011;45703;50.898;6.054;2023-10-19T15:25:16;5.40;;;1.67;;
59824;SDS011;45703;50.898;6.054;2023-10-19T15:27:45;6.80;;;1.60;;